createdAt,value
2018-12-18T00:02:15.207Z,99048.14
2018-12-18T00:04:42.622Z,99048.48
2018-12-18T00:07:10.065Z,99047.18
2018-12-18T00:09:37.473Z,99048.11
2018-12-18T00:12:04.968Z,99045.91
2018-12-18T00:14:32.411Z,99048.41
2018-12-18T00:16:59.854Z,99045.73
2018-12-18T00:19:27.261Z,99048.40
2018-12-18T00:21:54.728Z,99047.60
2018-12-18T00:24:22.205Z,99043.20
2018-12-18T00:26:49.608Z,99036.64
2018-12-18T00:29:17.036Z,99041.01
2018-12-18T00:31:44.428Z,99039.70
2018-12-18T00:34:11.821Z,99030.66
2018-12-18T00:36:39.232Z,99037.23
2018-12-18T00:39:08.768Z,99038.84
2018-12-18T00:41:36.163Z,99036.97
2018-12-18T00:44:03.668Z,99045.94
2018-12-18T00:46:31.108Z,99039.45
2018-12-18T00:48:58.524Z,99038.66
2018-12-18T00:51:25.920Z,99033.16
2018-12-18T00:53:53.333Z,99033.67
2018-12-18T00:56:20.736Z,99025.14
2018-12-18T00:58:48.148Z,99043.41
2018-12-18T01:01:15.596Z,99037.73
2018-12-18T01:03:42.996Z,99037.11
2018-12-18T01:06:10.410Z,99032.02
2018-12-18T01:08:37.808Z,99038.05
2018-12-18T01:11:05.208Z,99033.35
2018-12-18T01:13:32.616Z,99039.77
2018-12-18T01:16:00.062Z,99032.07
2018-12-18T01:18:27.578Z,99038.17
2018-12-18T01:20:54.997Z,99038.74
2018-12-18T01:23:22.443Z,99036.84
2018-12-18T01:25:49.929Z,99037.59
2018-12-18T01:28:17.355Z,99041.61
2018-12-18T01:30:44.759Z,99035.19
2018-12-18T01:33:12.156Z,99040.24
2018-12-18T01:35:39.573Z,99036.06
2018-12-18T01:38:06.976Z,99037.81
2018-12-18T01:40:34.376Z,99033.00
2018-12-18T01:43:01.792Z,99038.08
2018-12-18T01:45:29.190Z,99038.66
2018-12-18T01:47:56.585Z,99036.31
2018-12-18T01:50:23.996Z,99035.72
2018-12-18T01:52:51.392Z,99034.25
2018-12-18T01:55:18.792Z,99035.97
2018-12-18T01:57:46.212Z,99034.09
2018-12-18T02:00:13.659Z,99027.91
2018-12-18T02:02:41.065Z,99029.33
2018-12-18T02:05:08.476Z,99020.63
2018-12-18T02:07:36.219Z,99017.47
2018-12-18T02:10:04.316Z,99021.66
2018-12-18T02:12:31.913Z,99017.47
2018-12-18T02:14:59.309Z,99021.36
2018-12-18T02:17:26.705Z,99017.70
2018-12-18T02:19:54.116Z,99018.97
2018-12-18T02:22:21.528Z,99016.69
2018-12-18T02:24:48.981Z,99010.33
2018-12-18T02:27:16.432Z,99008.85
2018-12-18T02:29:43.856Z,99006.53
2018-12-18T02:32:11.391Z,99014.50
2018-12-18T02:34:38.784Z,99008.75
2018-12-18T02:37:06.194Z,99011.45
2018-12-18T02:39:33.593Z,99010.44
2018-12-18T02:42:00.980Z,99007.11
2018-12-18T02:44:28.385Z,99000.95
2018-12-18T02:46:55.784Z,99009.58
2018-12-18T02:49:23.188Z,99001.14
2018-12-18T02:51:50.579Z,99007.73
2018-12-18T02:54:17.976Z,99005.01
2018-12-18T02:56:45.381Z,99000.62
2018-12-18T02:59:12.776Z,98998.91
2018-12-18T03:01:40.189Z,98985.40
2018-12-18T03:04:07.590Z,98984.45
2018-12-18T03:06:34.985Z,98988.06
2018-12-18T03:09:02.386Z,98983.44
2018-12-18T03:11:29.809Z,98979.80
2018-12-18T03:13:57.305Z,98983.06
2018-12-18T03:16:24.710Z,98973.80
2018-12-18T03:18:52.200Z,98966.48
2018-12-18T03:21:19.615Z,98973.55
2018-12-18T03:23:47.015Z,98965.07
2018-12-18T03:26:14.412Z,98963.44
2018-12-18T03:28:41.816Z,98974.77
2018-12-18T03:31:09.215Z,98975.62
2018-12-18T03:33:36.638Z,98971.34
2018-12-18T03:36:04.158Z,98969.27
2018-12-18T03:38:31.565Z,98975.10
2018-12-18T03:40:59.017Z,98961.56
2018-12-18T03:43:26.412Z,98968.77
2018-12-18T03:45:53.830Z,98965.57
2018-12-18T03:48:21.220Z,98962.73
2018-12-18T03:50:48.614Z,98959.95
2018-12-18T03:53:16.115Z,98956.19
2018-12-18T03:55:44.333Z,98961.55
2018-12-18T03:58:11.745Z,98962.58
2018-12-18T04:00:39.184Z,98956.23
2018-12-18T04:03:06.582Z,98951.38
2018-12-18T04:05:34.073Z,98949.18
2018-12-18T04:08:01.624Z,98949.37
2018-12-18T04:10:29.105Z,98951.95
2018-12-18T04:12:56.504Z,98958.61
2018-12-18T04:15:23.950Z,98965.14
2018-12-18T04:17:51.361Z,98963.97
2018-12-18T04:20:18.839Z,98965.61
2018-12-18T04:22:46.252Z,98960.97
2018-12-18T04:25:13.667Z,98955.76
2018-12-18T04:27:41.148Z,98963.42
2018-12-18T04:30:08.583Z,98954.15
2018-12-18T04:32:36.002Z,98950.07
2018-12-18T04:35:03.883Z,98953.04
2018-12-18T04:37:31.284Z,98961.66
2018-12-18T04:39:58.691Z,98956.62
2018-12-18T04:47:14.624Z,98961.19
2018-12-18T04:49:42.014Z,98961.10
2018-12-18T04:52:09.508Z,98961.29
2018-12-18T04:54:38.994Z,98960.18
2018-12-18T04:57:06.476Z,98965.31
2018-12-18T04:59:33.972Z,98964.07
2018-12-18T05:02:01.381Z,98967.22
2018-12-18T05:04:28.865Z,98966.52
2018-12-18T05:06:56.265Z,98963.77
2018-12-18T05:09:23.749Z,98967.52
2018-12-18T05:11:51.155Z,98969.08
2018-12-18T05:14:18.563Z,98968.09
2018-12-18T05:16:45.967Z,98964.05
2018-12-18T05:19:13.419Z,98963.65
2018-12-18T05:21:40.829Z,98971.59
2018-12-18T05:24:08.235Z,98966.30
2018-12-18T05:26:35.634Z,98968.86
2018-12-18T05:29:03.082Z,98966.30
2018-12-18T05:31:30.529Z,98967.84
2018-12-18T05:33:57.924Z,98965.06
2018-12-18T05:36:26.041Z,98973.38
2018-12-18T05:38:53.666Z,98977.70
2018-12-18T05:41:21.121Z,98980.63
2018-12-18T05:43:48.530Z,98974.27
2018-12-18T05:46:15.930Z,98974.20
2018-12-18T05:48:43.341Z,98971.45
2018-12-18T05:51:10.788Z,98971.15
2018-12-18T05:53:38.280Z,98962.23
2018-12-18T05:56:05.689Z,98960.34
2018-12-18T05:58:33.081Z,98961.12
2018-12-18T06:01:00.480Z,98967.31
2018-12-18T06:03:27.880Z,98973.48
2018-12-18T06:05:55.280Z,98980.80
2018-12-18T06:08:22.688Z,98975.01
2018-12-18T06:10:50.076Z,98974.45
2018-12-18T06:13:17.484Z,98980.44
2018-12-18T06:15:44.925Z,98979.11
2018-12-18T06:18:12.317Z,98978.87
2018-12-18T06:20:39.762Z,98978.69
2018-12-18T06:23:07.132Z,98976.58
2018-12-18T06:25:34.548Z,98970.69
2018-12-18T06:28:01.946Z,98969.02
2018-12-18T06:30:29.476Z,98961.36
2018-12-18T06:32:56.888Z,98959.91
2018-12-18T06:35:24.276Z,98959.66
2018-12-18T06:37:51.682Z,98964.54
2018-12-18T06:40:19.084Z,98958.73
2018-12-18T06:42:46.529Z,98960.09
2018-12-18T06:45:13.932Z,98970.63
2018-12-18T06:47:41.325Z,98969.85
2018-12-18T06:50:08.763Z,98963.98
2018-12-18T06:52:36.168Z,98970.19
2018-12-18T06:55:03.864Z,98967.75
2018-12-18T06:57:31.276Z,98969.28
2018-12-18T06:59:58.681Z,98975.72
2018-12-18T07:02:26.075Z,98970.56
2018-12-18T07:04:53.480Z,98964.51
2018-12-18T07:07:20.883Z,98963.08
2018-12-18T07:09:48.285Z,98958.55
2018-12-18T07:12:15.695Z,98957.37
2018-12-18T07:14:43.088Z,98954.66
2018-12-18T07:17:10.561Z,98959.53
2018-12-18T07:19:37.938Z,98957.83
2018-12-18T07:22:05.344Z,98961.04
2018-12-18T07:24:32.830Z,98954.95
2018-12-18T07:27:00.228Z,98959.80
2018-12-18T07:29:27.667Z,98963.17
2018-12-18T07:31:55.137Z,98959.38
2018-12-18T07:34:22.532Z,98954.00
2018-12-18T07:36:49.944Z,98955.42
2018-12-18T07:39:17.342Z,98956.02
2018-12-18T07:41:44.736Z,98956.98
2018-12-18T07:44:12.140Z,98953.05
2018-12-18T07:46:39.545Z,98956.36
2018-12-18T07:49:06.951Z,98949.25
2018-12-18T07:51:34.448Z,98950.40
2018-12-18T07:54:01.830Z,98949.91
2018-12-18T07:56:29.236Z,98949.25
2018-12-18T07:58:56.628Z,98946.02
2018-12-18T08:01:24.038Z,98946.52
2018-12-18T08:03:51.440Z,98944.38
2018-12-18T08:06:18.832Z,98945.16
2018-12-18T08:08:46.228Z,98935.95
2018-12-18T08:11:13.625Z,98942.53
2018-12-18T08:13:41.036Z,98945.16
2018-12-18T08:16:08.521Z,98952.13
2018-12-18T08:18:35.909Z,98949.70
2018-12-18T08:21:03.364Z,98946.97
2018-12-18T08:23:30.776Z,98947.78
2018-12-18T08:25:58.168Z,98950.67
2018-12-18T08:28:25.648Z,98953.33
2018-12-18T08:30:53.046Z,98950.17
2018-12-18T08:33:20.449Z,98954.22
2018-12-18T08:35:47.851Z,98949.14
2018-12-18T08:38:15.259Z,98942.66
2018-12-18T08:40:42.652Z,98942.59
2018-12-18T08:43:10.048Z,98941.72
2018-12-18T08:45:37.460Z,98944.38
2018-12-18T08:48:04.858Z,98937.27
2018-12-18T08:50:32.317Z,98941.42
2018-12-18T08:52:59.713Z,98939.99
2018-12-18T08:55:27.107Z,98935.20
2018-12-18T08:57:54.558Z,98941.16
2018-12-18T09:00:21.952Z,98947.56
2018-12-18T09:02:49.356Z,98936.23
2018-12-18T09:05:16.757Z,98943.09
2018-12-18T09:07:44.156Z,98944.84
2018-12-18T09:10:11.612Z,98943.50
2018-12-18T09:12:39.010Z,98938.88
2018-12-18T09:18:09.704Z,98928.39
2018-12-18T09:20:37.122Z,98923.15
2018-12-18T09:23:04.516Z,98917.76
2018-12-18T09:25:31.921Z,98917.39
2018-12-18T09:27:59.330Z,98918.27
2018-12-18T09:30:26.716Z,98915.42
2018-12-18T09:32:54.130Z,98913.05
2018-12-18T09:35:21.539Z,98907.38
2018-12-18T09:37:50.877Z,98909.19
2018-12-18T09:40:20.233Z,98901.05
2018-12-18T09:42:53.278Z,98896.09
2018-12-18T09:45:20.725Z,98888.70
2018-12-18T09:47:48.120Z,98887.03
2018-12-18T09:50:15.537Z,98872.11
2018-12-18T09:52:42.928Z,98872.77
2018-12-18T09:55:10.326Z,98877.16
2018-12-18T09:57:43.536Z,98873.91
2018-12-18T10:00:11.069Z,98872.91
2018-12-18T10:02:38.482Z,98864.42
2018-12-18T10:05:06.056Z,98859.20
2018-12-18T10:07:33.508Z,98851.09
2018-12-18T10:10:00.986Z,98852.06
2018-12-18T10:12:33.847Z,98856.72
2018-12-18T10:15:01.273Z,98852.69
2018-12-18T10:17:28.746Z,98837.12
2018-12-18T10:19:56.143Z,98824.57
2018-12-18T10:22:23.553Z,98822.73
2018-12-18T10:24:50.959Z,98814.33
2018-12-18T10:27:18.504Z,98810.77
2018-12-18T10:29:45.910Z,98804.48
2018-12-18T10:32:13.328Z,98805.55
2018-12-18T10:34:40.739Z,98800.14
2018-12-18T10:37:08.129Z,98800.17
2018-12-18T10:39:35.572Z,98808.41
2018-12-18T10:42:02.979Z,98807.55
2018-12-18T10:44:30.432Z,98798.80
2018-12-18T10:46:57.844Z,98781.56
2018-12-18T10:49:25.244Z,98787.66
2018-12-18T10:51:52.641Z,98775.41
2018-12-18T10:54:20.133Z,98770.25
2018-12-18T10:56:47.512Z,98753.88
2018-12-18T10:59:14.920Z,98742.39
2018-12-18T11:01:47.135Z,98732.90
2018-12-18T11:04:14.700Z,98720.05
2018-12-18T11:06:42.311Z,98706.68
2018-12-18T11:09:09.770Z,98701.53
2018-12-18T11:11:37.807Z,98701.27
2018-12-18T11:14:05.308Z,98695.81
2018-12-18T11:16:37.309Z,98698.01
2018-12-18T11:19:02.208Z,98693.08
2018-12-18T11:21:29.741Z,98687.61
2018-12-18T11:23:57.828Z,98684.63
2018-12-18T11:26:25.244Z,98672.63
2018-12-18T11:28:52.640Z,98675.63
2018-12-18T11:31:20.047Z,98656.48
2018-12-18T11:33:47.459Z,98656.77
2018-12-18T11:36:16.611Z,98640.12
2018-12-18T11:38:44.399Z,98631.36
2018-12-18T11:41:11.795Z,98619.61
2018-12-18T11:43:39.188Z,98618.23
2018-12-18T11:46:06.604Z,98616.87
2018-12-18T11:48:34.001Z,98617.95
2018-12-18T11:51:01.400Z,98616.33
2018-12-18T11:53:28.832Z,98608.66
2018-12-18T11:55:56.212Z,98611.38
2018-12-18T11:58:23.617Z,98606.71
2018-12-18T12:00:51.074Z,98601.52
2018-12-18T12:03:18.480Z,98599.31
2018-12-18T12:05:45.901Z,98600.67
2018-12-18T12:08:13.308Z,98595.46
2018-12-18T12:10:40.717Z,98588.62
2018-12-18T12:13:08.130Z,98592.18
2018-12-18T12:15:35.552Z,98592.75
2018-12-18T12:18:03.033Z,98591.09
2018-12-18T12:20:30.440Z,98586.16
2018-12-18T12:22:57.857Z,98578.20
2018-12-18T12:25:25.257Z,98559.05
2018-12-18T12:27:58.172Z,98551.64
2018-12-18T12:30:25.589Z,98565.88
2018-12-18T12:32:52.988Z,98567.27
2018-12-18T12:35:20.389Z,98558.17
2018-12-18T12:37:47.875Z,98554.06
2018-12-18T12:40:15.257Z,98550.20
2018-12-18T12:42:42.659Z,98546.92
2018-12-18T12:45:10.072Z,98545.02
2018-12-18T12:47:37.468Z,98533.20
2018-12-18T12:50:06.114Z,98530.50
2018-12-18T12:52:33.512Z,98537.85
2018-12-18T12:55:00.968Z,98528.80
2018-12-18T12:57:28.365Z,98524.66
2018-12-18T12:59:55.781Z,98512.88
2018-12-18T13:02:23.182Z,98518.94
2018-12-18T13:04:50.588Z,98512.38
2018-12-18T13:07:17.998Z,98504.41
2018-12-18T13:09:45.401Z,98502.70
2018-12-18T13:12:12.804Z,98502.66
2018-12-18T13:14:40.205Z,98495.31
2018-12-18T13:17:07.621Z,98492.92
2018-12-18T13:19:35.036Z,98497.52
2018-12-18T13:22:02.433Z,98496.05
2018-12-18T13:24:29.832Z,98492.77
2018-12-18T13:26:57.254Z,98497.72
2018-12-18T13:29:25.501Z,98495.31
2018-12-18T13:31:53.195Z,98500.35
2018-12-18T13:34:20.680Z,98499.58
2018-12-18T13:36:49.132Z,98492.23
2018-12-18T13:39:16.601Z,98492.23
2018-12-18T13:41:44.003Z,98483.07
2018-12-18T13:44:11.409Z,98482.55
2018-12-18T13:46:38.796Z,98476.77
2018-12-18T13:49:06.212Z,98473.97
2018-12-18T13:51:33.631Z,98463.13
2018-12-18T13:54:01.083Z,98459.59
2018-12-18T13:56:28.489Z,98454.83
2018-12-18T13:58:55.902Z,98449.36
2018-12-18T14:01:23.492Z,98446.92
2018-12-18T14:03:50.904Z,98443.48
2018-12-18T14:06:18.317Z,98435.42
2018-12-18T14:08:45.760Z,98434.82
2018-12-18T14:11:13.263Z,98431.78
2018-12-18T14:13:40.669Z,98436.98
2018-12-18T14:16:08.072Z,98435.34
2018-12-18T14:18:35.482Z,98434.27
2018-12-18T14:21:02.915Z,98438.64
2018-12-18T14:23:30.300Z,98444.75
2018-12-18T14:25:57.704Z,98444.98
2018-12-18T14:28:25.100Z,98432.91
2018-12-18T14:30:52.508Z,98437.61
2018-12-18T14:33:19.915Z,98441.97
2018-12-18T14:35:47.347Z,98435.95
2018-12-18T14:38:14.740Z,98431.02
2018-12-18T14:40:42.137Z,98425.88
2018-12-18T14:43:09.536Z,98423.48
2018-12-18T14:45:36.948Z,98422.70
2018-12-18T14:48:04.348Z,98412.83
2018-12-18T14:50:31.745Z,98408.27
2018-12-18T14:52:59.144Z,98401.97
2018-12-18T14:55:26.544Z,98402.80
2018-12-18T14:57:54.054Z,98395.69
2018-12-18T15:00:21.433Z,98391.86
2018-12-18T15:02:48.869Z,98384.00
2018-12-18T15:05:17.742Z,98381.62
2018-12-18T15:07:45.368Z,98388.25
2018-12-18T15:10:12.824Z,98380.05
2018-12-18T15:12:42.170Z,98370.55
2018-12-18T15:15:09.564Z,98378.23
2018-12-18T15:17:36.982Z,98375.84
2018-12-18T15:20:06.676Z,98383.98
2018-12-18T15:22:34.089Z,98377.72
2018-12-18T15:25:01.485Z,98374.72
2018-12-18T15:27:28.889Z,98377.52
2018-12-18T15:29:56.294Z,98383.00
2018-12-18T15:32:24.030Z,98380.58
2018-12-18T15:34:51.443Z,98376.47
2018-12-18T15:37:18.844Z,98371.56
2018-12-18T15:39:46.240Z,98370.20
2018-12-18T15:42:13.645Z,98366.39
2018-12-18T15:44:41.039Z,98365.83
2018-12-18T15:47:08.454Z,98374.87
2018-12-18T15:49:36.842Z,98371.31
2018-12-18T15:52:04.402Z,98365.86
2018-12-18T15:54:31.809Z,98362.03
2018-12-18T15:56:59.291Z,98354.12
2018-12-18T15:59:26.710Z,98352.47
2018-12-18T16:01:54.115Z,98346.19
2018-12-18T16:04:24.523Z,98344.02
2018-12-18T16:06:52.693Z,98343.73
2018-12-18T16:09:20.094Z,98337.98
2018-12-18T16:11:47.496Z,98339.10
2018-12-18T16:14:14.897Z,98333.89
2018-12-18T16:16:42.300Z,98336.93
2018-12-18T16:19:09.791Z,98336.39
2018-12-18T16:21:37.324Z,98336.66
2018-12-18T16:24:04.724Z,98335.27
2018-12-18T16:26:32.189Z,98340.48
2018-12-18T16:28:59.594Z,98327.36
2018-12-18T16:31:27.004Z,98326.81
2018-12-18T16:33:54.412Z,98318.64
2018-12-18T16:36:21.809Z,98312.07
2018-12-18T16:38:49.232Z,98308.53
2018-12-18T16:41:16.624Z,98300.08
2018-12-18T16:43:44.728Z,98294.65
2018-12-18T16:46:12.178Z,98281.55
2018-12-18T16:48:39.613Z,98285.09
2018-12-18T16:51:07.026Z,98283.73
2018-12-18T16:53:34.430Z,98282.91
2018-12-18T16:56:01.851Z,98288.39
2018-12-18T16:58:29.283Z,98284.02
2018-12-18T17:00:56.743Z,98280.20
2018-12-18T17:03:24.120Z,98279.11
2018-12-18T17:05:51.861Z,98273.65
2018-12-18T17:08:19.236Z,98267.38
2018-12-18T17:10:46.636Z,98262.48
2018-12-18T17:13:14.037Z,98268.47
2018-12-18T17:15:41.436Z,98271.73
2018-12-18T17:18:08.848Z,98283.72
2018-12-18T17:20:36.249Z,98287.79
2018-12-18T17:23:03.651Z,98286.96
2018-12-18T17:25:31.053Z,98282.59
2018-12-18T17:27:58.452Z,98295.39
2018-12-18T17:30:25.913Z,98297.84
2018-12-18T17:32:53.319Z,98298.14
2018-12-18T17:35:20.730Z,98292.12
2018-12-18T17:37:48.126Z,98294.02
2018-12-18T17:40:15.564Z,98293.22
2018-12-18T17:42:42.999Z,98300.86
2018-12-18T17:45:10.384Z,98288.02
2018-12-18T17:47:37.784Z,98303.33
2018-12-18T17:50:06.294Z,98312.31
2018-12-18T17:52:33.690Z,98310.70
2018-12-18T17:55:01.090Z,98309.30
2018-12-18T17:57:28.628Z,98306.31
2018-12-18T17:59:56.017Z,98307.08
2018-12-18T18:02:23.480Z,98310.61
2018-12-18T18:04:50.925Z,98303.82
2018-12-18T18:07:18.368Z,98304.89
2018-12-18T18:09:45.821Z,98306.23
2018-12-18T18:12:13.310Z,98301.30
2018-12-18T18:14:40.713Z,98307.30
2018-12-18T18:17:08.157Z,98316.23
2018-12-18T18:19:35.555Z,98320.31
2018-12-18T18:22:03.004Z,98319.72
2018-12-18T18:24:30.460Z,98318.64
2018-12-18T18:26:57.865Z,98315.93
2018-12-18T18:29:25.265Z,98325.50
2018-12-18T18:31:52.676Z,98327.31
2018-12-18T18:34:20.069Z,98332.49
2018-12-18T18:36:47.574Z,98330.34
2018-12-18T18:39:15.322Z,98322.63
2018-12-18T18:41:42.856Z,98321.14
2018-12-18T18:44:10.257Z,98323.84
2018-12-18T18:46:37.654Z,98323.86
2018-12-18T18:49:05.143Z,98313.44
2018-12-18T18:51:32.640Z,98307.56
2018-12-18T18:54:00.024Z,98300.00
2018-12-18T18:56:27.735Z,98296.25
2018-12-18T18:58:55.121Z,98287.53
2018-12-18T19:01:22.542Z,98286.87
2018-12-18T19:03:49.937Z,98281.62
2018-12-18T19:06:17.337Z,98271.08
2018-12-18T19:08:44.837Z,98255.31
2018-12-18T19:11:12.224Z,98237.89
2018-12-18T19:13:40.556Z,98236.55
2018-12-18T19:16:08.145Z,98230.57
2018-12-18T19:18:35.533Z,98233.83
2018-12-18T19:21:02.945Z,98228.38
2018-12-18T19:23:30.340Z,98227.56
2018-12-18T19:25:57.749Z,98231.59
2018-12-18T19:28:25.141Z,98233.42
2018-12-18T19:30:52.538Z,98233.67
2018-12-18T19:33:19.946Z,98219.81
2018-12-18T19:35:47.359Z,98223.56
2018-12-18T19:38:14.764Z,98228.98
2018-12-18T19:40:42.162Z,98230.31
2018-12-18T19:43:09.553Z,98223.56
2018-12-18T19:45:36.956Z,98227.69
2018-12-18T19:48:04.400Z,98236.36
2018-12-18T19:50:31.861Z,98230.91
2018-12-18T19:52:59.278Z,98230.27
2018-12-18T19:55:26.682Z,98227.20
2018-12-18T19:57:54.086Z,98222.19
2018-12-18T20:00:21.483Z,98221.95
2018-12-18T20:02:48.985Z,98219.82
2018-12-18T20:05:16.421Z,98219.76
2018-12-18T20:07:43.820Z,98211.38
2018-12-18T20:10:11.238Z,98211.95
2018-12-18T20:12:38.634Z,98219.05
2018-12-18T20:15:06.143Z,98220.16
2018-12-18T20:17:33.787Z,98220.47
2018-12-18T20:20:01.197Z,98219.90
2018-12-18T20:22:28.868Z,98220.98
2018-12-18T20:24:56.276Z,98207.15
2018-12-18T20:27:23.683Z,98202.77
2018-12-18T20:29:51.336Z,98196.80
2018-12-18T20:32:18.743Z,98192.14
2018-12-18T20:34:46.149Z,98198.96
2018-12-18T20:37:18.276Z,98202.47
2018-12-18T20:39:43.004Z,98189.43
2018-12-18T20:42:10.406Z,98193.77
2018-12-18T20:44:37.801Z,98200.78
2018-12-18T20:47:05.352Z,98192.11
2018-12-18T20:49:32.748Z,98200.04
2018-12-18T20:52:00.166Z,98194.25
2018-12-18T20:54:27.561Z,98188.78
2018-12-18T20:56:54.961Z,98187.99
2018-12-18T20:59:22.452Z,98180.91
2018-12-18T21:01:49.885Z,98172.97
2018-12-18T21:04:17.297Z,98169.47
2018-12-18T21:06:44.692Z,98166.17
2018-12-18T21:09:12.084Z,98162.94
2018-12-18T21:11:39.498Z,98169.68
2018-12-18T21:14:06.889Z,98166.45
2018-12-18T21:16:34.285Z,98168.89
2018-12-18T21:19:01.700Z,98159.35
2018-12-18T21:21:29.118Z,98165.07
2018-12-18T21:23:56.508Z,98165.02
2018-12-18T21:26:23.905Z,98172.55
2018-12-18T21:28:51.304Z,98171.39
2018-12-18T21:31:18.709Z,98163.23
2018-12-18T21:33:46.121Z,98158.38
2018-12-18T21:36:13.522Z,98159.20
2018-12-18T21:38:40.913Z,98152.44
2018-12-18T21:41:08.321Z,98159.49
2018-12-18T21:43:36.458Z,98172.77
2018-12-18T21:46:03.914Z,98165.41
2018-12-18T21:48:31.322Z,98166.14
2018-12-18T21:50:58.720Z,98166.70
2018-12-18T21:53:26.123Z,98161.29
2018-12-18T21:55:53.519Z,98158.91
2018-12-18T21:58:20.920Z,98160.70
2018-12-18T22:00:48.321Z,98156.09
2018-12-18T22:03:15.718Z,98154.23
2018-12-18T22:05:43.165Z,98148.48
2018-12-18T22:08:10.570Z,98138.41
2018-12-18T22:10:37.967Z,98136.55
2018-12-18T22:13:05.368Z,98123.78
2018-12-18T22:15:32.764Z,98128.70
2018-12-18T22:18:00.153Z,98129.44
2018-12-18T22:20:27.561Z,98128.34
2018-12-18T22:22:54.952Z,98116.89
2018-12-18T22:25:22.360Z,98115.27
2018-12-18T22:27:50.002Z,98097.95
2018-12-18T22:30:17.553Z,98095.21
2018-12-18T22:32:44.956Z,98093.80
2018-12-18T22:35:12.509Z,98093.80
2018-12-18T22:37:39.957Z,98093.53
2018-12-18T22:40:07.444Z,98085.39
2018-12-18T22:42:34.853Z,98092.10
2018-12-18T22:45:02.246Z,98102.41
2018-12-18T22:47:29.725Z,98095.37
2018-12-18T22:49:57.125Z,98098.62
2018-12-18T22:52:24.517Z,98088.45
2018-12-18T22:54:51.979Z,98089.12
2018-12-18T22:57:19.372Z,98089.28
2018-12-18T22:59:46.780Z,98088.95
2018-12-18T23:02:16.261Z,98088.90
2018-12-18T23:04:43.980Z,98091.61
2018-12-18T23:07:11.476Z,98078.75
2018-12-18T23:09:38.881Z,98078.81
2018-12-18T23:12:06.348Z,98077.78
2018-12-18T23:14:33.746Z,98084.09
2018-12-18T23:17:01.144Z,98089.75
2018-12-18T23:19:28.546Z,98077.69
2018-12-18T23:21:55.947Z,98073.62
2018-12-18T23:24:23.442Z,98068.13
2018-12-18T23:26:50.828Z,98070.11
2018-12-18T23:29:18.248Z,98060.34
2018-12-18T23:31:45.689Z,98053.58
2018-12-18T23:34:22.789Z,98047.80
2018-12-18T23:36:50.181Z,98055.35
2018-12-18T23:39:17.601Z,98043.91
2018-12-18T23:41:45.649Z,98043.52
2018-12-18T23:44:13.937Z,98039.09
2018-12-18T23:46:41.350Z,98041.28
2018-12-18T23:49:08.773Z,98037.24
2018-12-18T23:51:36.253Z,98035.88
2018-12-18T23:54:03.775Z,98039.95
2018-12-18T23:56:31.179Z,98037.77
2018-12-18T23:58:58.676Z,98040.19
